Wednesday, April 25, 2018, 12:13 PM GMT
Back to Local

CXMY, Malay Falls , N. S.

Location: , , Canada Lat: 44.983
Local Time: 12:13 PM GMT (12:13 GMT) Lon: -62.483
Time Zone: GMT Elev: 131 ft

Show me the last for .
Show Coded

Time T Td Feel RH Dir Speed Gust Alt SLP Vis Weather Sky Remarks
2018-04-25 11:00 39 36 - 89 - - - - - 0 None
2018-04-25 10:00 35 34 - 96 - - - - - 0 None
2018-04-25 09:00 32 31 - 98 - - - - - 0 None
2018-04-25 08:00 32 31 - 95 - - - - - 0 None
2018-04-25 07:00 34 32 - 90 - - - - - 0 None
2018-04-25 06:00 37 32 - 82 - - - - - 0 None
2018-04-25 05:00 39 31 - 74 - - - - - 0 None
2018-04-25 04:00 40 32 - 72 - - - - - 0 None
2018-04-25 03:00 36 30 - 81 - - - - - 0 None
2018-04-25 02:00 40 31 - 67 - - - - - 0 None
2018-04-25 01:00 43 30 - 59 - - - - - 0 None
2018-04-25 00:00 45 29 - 54 - - - - - 0 None
2018-04-24 23:00 48 28 - 44 - - - - - 0 None
2018-04-24 22:00 54 27 - 34 - - - - - 0 None
2018-04-24 21:00 57 28 - 33 - - - - - 0 None
2018-04-24 20:00 60 30 - 32 - - - - - 0 None
2018-04-24 19:00 61 30 - 30 - - - - - 0 None
2018-04-24 18:00 60 31 - 33 - - - - - 0 None
2018-04-24 17:00 59 31 - 34 - - - - - 0 None
2018-04-24 16:00 60 36 - 40 - - - - - 0 None
2018-04-24 15:00 62 31 - 31 - - - - - 0 None
2018-04-24 14:00 61 24 - 23 - - - - - 0 None
2018-04-24 13:00 56 24 - 28 - - - - - 0 None

Support USWX by starting your Amazon purchase here.